Time;durP1;ratioP1;P1;durP2;ratioP2;P2;SDS_P1;SDS_P2;PMS_P1;PMS_P2;Temp;Humidity;BMP_temperature;BMP_pressure;BME280_temperature;BME280_humidity;BME280_pressure;Samples;Min_cycle;Max_cycle;Signal;HPM_P1;HPM_P2
2021/07/14 00:01:05;;;;;;;31.75;19.42;;;16.80;99.90;;;;;;5066090;28;25067;-59
2021/07/14 00:03:30;;;;;;;31.70;18.17;;;16.80;99.90;;;;;;5069891;28;25065;-61
2021/07/14 00:05:56;;;;;;;31.92;18.10;;;16.80;99.90;;;;;;5067879;28;25075;-62
2021/07/14 00:08:21;;;;;;;35.55;18.25;;;16.90;99.90;;;;;;5062978;28;25057;-62
2021/07/14 00:10:47;;;;;;;36.15;16.98;;;16.80;99.90;;;;;;5066339;28;25156;-63
2021/07/14 00:24:00;;;;;;;28.63;16.08;;;16.90;99.90;;;;;;5082310;28;25100;-60
2021/07/14 00:26:25;;;;;;;34.78;16.33;;;16.90;99.90;;;;;;5082671;28;25062;-60
2021/07/14 00:28:51;;;;;;;31.52;16.17;;;16.90;99.90;;;;;;5069899;28;25133;-61
2021/07/14 00:31:18;;;;;;;27.38;15.27;;;16.90;99.90;;;;;;5059287;28;25081;-64
2021/07/14 00:33:45;;;;;;;29.45;16.75;;;17.00;99.90;;;;;;5066813;28;25109;-63
2021/07/14 00:36:11;;;;;;;32.67;15.57;;;17.00;99.90;;;;;;5070277;28;25074;-61
2021/07/14 00:38:37;;;;;;;33.08;16.25;;;17.00;99.90;;;;;;5068347;28;25088;-63
2021/07/14 00:41:04;;;;;;;24.85;15.63;;;17.00;99.90;;;;;;5035221;28;25146;-63
2021/07/14 00:43:30;;;;;;;32.90;17.75;;;17.00;99.90;;;;;;5059085;28;25120;-64
2021/07/14 00:46:21;;;;;;;29.10;16.73;;;17.00;99.90;;;;;;5067994;28;25078;-64
2021/07/14 00:48:49;;;;;;;35.97;20.83;;;17.00;99.90;;;;;;5069531;28;25140;-61
2021/07/14 00:51:16;;;;;;;38.78;21.33;;;17.00;99.90;;;;;;5057382;28;25068;-62
2021/07/14 00:53:42;;;;;;;36.47;20.10;;;17.00;99.90;;;;;;5060457;28;25057;-64
2021/07/14 00:56:08;;;;;;;31.90;19.95;;;17.00;99.90;;;;;;5056602;28;25067;-64
2021/07/14 00:58:33;;;;;;;36.85;19.40;;;17.00;99.90;;;;;;5064936;28;25066;-62
2021/07/14 01:01:00;;;;;;;34.10;21.40;;;17.00;99.90;;;;;;5055240;28;25094;-64
2021/07/14 01:03:29;;;;;;;44.55;22.33;;;17.00;99.90;;;;;;5066995;28;25079;-63
2021/07/14 01:05:58;;;;;;;40.72;21.35;;;17.00;99.90;;;;;;5066649;28;25079;-63
2021/07/14 01:08:59;;;;;;;41.10;20.35;;;17.00;99.90;;;;;;5066874;28;25080;-63
2021/07/14 01:11:27;;;;;;;48.60;23.95;;;16.90;99.90;;;;;;5067054;28;25070;-63
2021/07/14 01:14:11;;;;;;;49.70;21.67;;;17.00;99.90;;;;;;5049738;28;25102;-64
2021/07/14 01:16:43;;;;;;;39.70;22.88;;;16.90;99.90;;;;;;5068465;28;25118;-64
2021/07/14 01:19:38;;;;;;;50.78;23.05;;;17.00;99.90;;;;;;5061379;28;25052;-64
2021/07/14 01:22:30;;;;;;;47.42;25.60;;;17.00;99.90;;;;;;5058302;28;25075;-64
2021/07/14 01:25:04;;;;;;;49.47;23.58;;;17.00;99.90;;;;;;5077738;28;25062;-62
2021/07/14 01:27:34;;;;;;;43.72;24.00;;;17.00;99.90;;;;;;5044786;28;25126;-63
2021/07/14 01:30:04;;;;;;;51.80;26.13;;;17.00;99.90;;;;;;5064291;28;25064;-64
2021/07/14 01:32:30;;;;;;;49.03;25.52;;;17.00;99.90;;;;;;5066625;28;25068;-63
2021/07/14 01:35:00;;;;;;;59.20;24.08;;;17.00;99.90;;;;;;5062993;28;25069;-61
2021/07/14 01:37:27;;;;;;;46.45;23.13;;;16.90;99.90;;;;;;5077570;28;25169;-63
2021/07/14 01:39:56;;;;;;;49.40;22.85;;;16.90;99.90;;;;;;5065116;28;25052;-63
2021/07/14 01:42:25;;;;;;;53.22;22.48;;;16.90;99.90;;;;;;5048923;28;25051;-62
2021/07/14 01:44:54;;;;;;;46.00;21.42;;;17.00;99.90;;;;;;5067803;28;25147;-63
2021/07/14 01:47:22;;;;;;;49.45;21.45;;;17.00;99.90;;;;;;5070821;28;25061;-62
2021/07/14 01:49:49;;;;;;;50.33;21.20;;;17.00;99.90;;;;;;5076232;28;25069;-63
2021/07/14 01:52:18;;;;;;;49.97;20.63;;;17.00;99.90;;;;;;5073155;28;25054;-62
2021/07/14 01:54:45;;;;;;;62.67;25.77;;;17.00;99.90;;;;;;5069765;28;25086;-62
2021/07/14 01:57:11;;;;;;;57.88;23.50;;;16.90;99.90;;;;;;5066651;28;25068;-62
2021/07/14 01:59:42;;;;;;;58.17;23.90;;;17.00;99.90;;;;;;5066334;28;25099;-62
2021/07/14 02:02:10;;;;;;;57.80;23.85;;;16.90;99.90;;;;;;5043568;28;25065;-61
2021/07/14 02:04:38;;;;;;;60.08;25.25;;;17.00;99.90;;;;;;5045959;28;25089;-63
2021/07/14 02:07:05;;;;;;;66.65;26.88;;;16.90;99.90;;;;;;5065916;28;25084;-62
2021/07/14 02:09:33;;;;;;;65.68;27.08;;;16.90;99.90;;;;;;5061941;28;25090;-62
2021/07/14 02:12:01;;;;;;;76.05;25.67;;;16.90;99.90;;;;;;5068812;28;25139;-62
2021/07/14 02:14:31;;;;;;;69.55;25.85;;;16.90;99.90;;;;;;5061118;28;25080;-62
2021/07/14 02:17:01;;;;;;;76.28;27.85;;;16.90;99.90;;;;;;5060818;28;25116;-63
2021/07/14 02:19:30;;;;;;;63.83;26.45;;;16.90;99.90;;;;;;5064544;28;25054;-61
2021/07/14 02:21:56;;;;;;;68.75;27.67;;;16.90;99.90;;;;;;5064442;28;25009;-62
2021/07/14 02:24:22;;;;;;;73.50;28.17;;;16.90;99.90;;;;;;5058112;28;25068;-64
2021/07/14 02:26:48;;;;;;;73.30;27.70;;;16.90;99.90;;;;;;5081826;28;25425;-63
2021/07/14 02:29:14;;;;;;;72.85;27.58;;;16.90;99.90;;;;;;5068350;28;25086;-62
2021/07/14 02:31:39;;;;;;;73.72;29.80;;;16.90;99.90;;;;;;5065205;28;25073;-63
2021/07/14 02:34:07;;;;;;;66.60;33.15;;;16.90;99.90;;;;;;5061136;28;25079;-61
2021/07/14 02:36:36;;;;;;;84.30;32.90;;;16.90;99.90;;;;;;5058940;28;25088;-61
2021/07/14 02:39:05;;;;;;;82.93;34.85;;;16.90;99.90;;;;;;5051410;28;25135;-62
2021/07/14 02:41:49;;;;;;;72.43;32.08;;;16.90;99.90;;;;;;5068862;28;25065;-63
2021/07/14 02:44:19;;;;;;;80.97;35.50;;;17.00;99.90;;;;;;5067204;28;25062;-64
2021/07/14 02:46:48;;;;;;;84.50;36.08;;;16.90;99.90;;;;;;5077431;28;25062;-62
2021/07/14 02:49:20;;;;;;;86.68;35.75;;;16.90;99.90;;;;;;5065927;28;25063;-61
2021/07/14 02:51:49;;;;;;;102.75;38.92;;;17.00;99.90;;;;;;5077993;22;25105;-64
2021/07/14 02:54:27;;;;;;;77.07;33.97;;;17.00;99.90;;;;;;5070488;28;25060;-64
2021/07/14 02:57:01;;;;;;;97.80;38.67;;;17.00;99.90;;;;;;5047994;28;25082;-64
2021/07/14 02:59:30;;;;;;;101.35;36.35;;;17.00;99.90;;;;;;5056358;28;25079;-64
2021/07/14 03:01:58;;;;;;;82.65;34.03;;;17.00;99.90;;;;;;5049178;28;25074;-65
2021/07/14 03:04:39;;;;;;;87.05;38.10;;;17.00;99.90;;;;;;5042586;28;25155;-63
2021/07/14 03:07:08;;;;;;;92.28;35.05;;;17.00;99.90;;;;;;5043379;28;25136;-63
2021/07/14 03:09:38;;;;;;;92.53;36.92;;;17.00;99.90;;;;;;5043740;28;25100;-63
2021/07/14 03:12:10;;;;;;;91.03;34.33;;;17.00;99.90;;;;;;5046129;28;25122;-64
2021/07/14 03:14:43;;;;;;;80.25;33.88;;;17.00;99.90;;;;;;5050792;28;25131;-66
2021/07/14 03:17:10;;;;;;;68.20;32.83;;;16.90;99.90;;;;;;5051090;28;25102;-66
2021/07/14 03:19:37;;;;;;;87.43;34.10;;;17.00;99.90;;;;;;5051568;28;25088;-64
2021/07/14 03:22:04;;;;;;;78.90;34.08;;;17.00;99.90;;;;;;5052207;28;25050;-65
2021/07/14 03:24:30;;;;;;;80.82;34.70;;;17.00;99.90;;;;;;5045387;28;25105;-63
2021/07/14 03:26:57;;;;;;;72.53;35.45;;;17.00;99.90;;;;;;5052531;28;25060;-64
2021/07/14 03:29:23;;;;;;;91.28;38.53;;;17.00;99.90;;;;;;5054678;28;25065;-66
2021/07/14 03:31:50;;;;;;;76.35;34.60;;;17.00;99.90;;;;;;5058362;28;25080;-63
2021/07/14 03:34:16;;;;;;;71.90;33.92;;;17.00;99.90;;;;;;5050217;28;25075;-63
2021/07/14 03:36:43;;;;;;;72.78;35.22;;;17.00;99.90;;;;;;5050195;28;25072;-64
2021/07/14 03:39:10;;;;;;;64.25;33.35;;;17.00;99.90;;;;;;5049464;28;25159;-64
2021/07/14 03:41:37;;;;;;;68.88;33.30;;;17.00;99.90;;;;;;5050200;28;25111;-65
2021/07/14 03:44:04;;;;;;;73.30;32.92;;;17.00;99.90;;;;;;5049784;28;25076;-66
2021/07/14 03:46:30;;;;;;;77.05;39.72;;;17.10;99.90;;;;;;5042245;28;25058;-63
2021/07/14 03:48:56;;;;;;;89.30;42.03;;;17.00;99.90;;;;;;5050855;28;25127;-64
2021/07/14 03:51:23;;;;;;;72.97;40.95;;;17.00;99.90;;;;;;5039271;28;25086;-63
2021/07/14 03:53:50;;;;;;;81.40;43.40;;;17.00;99.90;;;;;;5056983;28;25081;-64
2021/07/14 03:56:17;;;;;;;75.70;42.88;;;17.00;99.90;;;;;;5056529;28;25068;-64
2021/07/14 03:58:44;;;;;;;85.85;42.85;;;17.00;99.90;;;;;;5052803;28;25066;-64
2021/07/14 04:01:12;;;;;;;81.43;41.45;;;17.00;99.90;;;;;;5048247;28;25098;-65
2021/07/14 04:03:39;;;;;;;81.03;37.63;;;17.00;99.90;;;;;;5046078;28;25116;-63
2021/07/14 04:06:07;;;;;;;76.25;38.65;;;17.00;99.90;;;;;;5048959;28;25096;-64
2021/07/14 04:09:12;;;;;;;87.85;38.72;;;16.90;99.90;;;;;;5049417;28;25093;-64
2021/07/14 04:11:39;;;;;;;77.75;38.72;;;16.90;99.90;;;;;;5046775;28;25067;-64
2021/07/14 04:14:04;;;;;;;82.97;38.60;;;17.00;99.90;;;;;;5049152;28;25074;-66
2021/07/14 04:16:30;;;;;;;88.47;41.13;;;17.00;99.90;;;;;;5035616;28;25077;-65
2021/07/14 04:18:55;;;;;;;81.38;39.72;;;16.90;99.90;;;;;;5049044;28;25051;-65
2021/07/14 04:21:21;;;;;;;77.97;38.90;;;17.00;99.90;;;;;;5048573;28;25059;-63
2021/07/14 04:23:47;;;;;;;71.38;38.45;;;17.00;99.90;;;;;;5022293;28;25061;-64
2021/07/14 04:26:12;;;;;;;72.40;37.13;;;17.00;99.90;;;;;;5031429;28;25057;-64
2021/07/14 04:28:38;;;;;;;67.93;37.03;;;16.90;99.90;;;;;;5059160;28;25070;-64
2021/07/14 04:31:03;;;;;;;71.53;37.47;;;17.00;99.90;;;;;;5054433;28;25078;-63
2021/07/14 04:33:29;;;;;;;74.20;37.58;;;17.00;99.90;;;;;;5045529;28;25131;-63
2021/07/14 04:35:54;;;;;;;75.95;37.72;;;17.00;99.90;;;;;;5045495;28;25144;-64
2021/07/14 04:38:21;;;;;;;87.20;39.42;;;17.00;99.90;;;;;;5045662;28;25069;-65
2021/07/14 04:40:47;;;;;;;82.93;39.97;;;17.00;99.90;;;;;;5042929;28;25133;-64
2021/07/14 04:43:13;;;;;;;79.25;38.80;;;17.00;99.90;;;;;;5049555;28;25151;-64
2021/07/14 04:45:38;;;;;;;88.30;41.28;;;17.00;99.90;;;;;;5048733;28;25140;-63
2021/07/14 04:48:05;;;;;;;90.75;39.90;;;17.00;99.90;;;;;;5039754;28;25095;-63
2021/07/14 04:50:31;;;;;;;80.75;38.72;;;16.90;99.90;;;;;;5045731;28;25132;-63
2021/07/14 04:52:56;;;;;;;87.18;39.38;;;16.90;99.90;;;;;;5026606;28;25060;-65
2021/07/14 04:55:22;;;;;;;85.72;39.55;;;16.90;99.90;;;;;;5040293;28;25068;-64
2021/07/14 04:57:48;;;;;;;85.80;36.38;;;16.90;99.90;;;;;;5048778;28;25071;-64
2021/07/14 05:00:16;;;;;;;60.78;31.98;;;16.90;99.90;;;;;;5046612;28;25100;-64
2021/07/14 05:02:45;;;;;;;72.40;35.03;;;16.90;99.90;;;;;;5050087;28;25159;-64
2021/07/14 05:05:14;;;;;;;58.58;33.25;;;16.90;99.90;;;;;;5047349;28;25087;-64
2021/07/14 05:07:40;;;;;;;67.47;32.70;;;16.90;99.90;;;;;;5048423;28;25072;-64
2021/07/14 05:10:07;;;;;;;61.40;32.22;;;16.90;99.90;;;;;;5039615;28;25069;-64
2021/07/14 05:12:33;;;;;;;68.97;31.55;;;17.00;99.90;;;;;;5042091;28;25079;-64
2021/07/14 05:14:58;;;;;;;59.75;28.88;;;17.00;99.90;;;;;;5021176;28;25053;-64
2021/07/14 05:17:24;;;;;;;59.00;28.38;;;17.00;99.90;;;;;;5034577;28;25117;-65
2021/07/14 05:19:49;;;;;;;57.47;29.55;;;17.00;99.90;;;;;;5040643;28;25074;-65
2021/07/14 05:22:15;;;;;;;54.15;28.45;;;17.00;99.90;;;;;;5039615;28;25072;-64
2021/07/14 05:24:41;;;;;;;51.45;27.70;;;16.90;99.90;;;;;;5042085;28;25137;-63
2021/07/14 05:27:07;;;;;;;50.45;26.23;;;17.00;99.90;;;;;;5046826;28;25054;-63
2021/07/14 05:29:33;;;;;;;58.90;28.20;;;17.00;99.90;;;;;;5044155;28;25067;-64
2021/07/14 05:31:59;;;;;;;53.55;26.98;;;17.00;99.90;;;;;;5036744;28;25068;-63
2021/07/14 05:34:25;;;;;;;56.75;27.90;;;17.00;99.90;;;;;;5023950;28;25175;-64
2021/07/14 05:36:51;;;;;;;44.47;26.15;;;17.00;99.90;;;;;;5038543;28;25149;-65
2021/07/14 05:39:16;;;;;;;44.28;26.08;;;17.00;99.90;;;;;;5046540;28;25073;-63
2021/07/14 05:41:42;;;;;;;48.95;28.65;;;17.00;99.90;;;;;;5051567;28;25081;-65
2021/07/14 05:44:07;;;;;;;46.58;27.17;;;17.00;99.90;;;;;;5044465;28;25089;-62
2021/07/14 05:46:34;;;;;;;45.25;26.27;;;17.00;99.90;;;;;;5043848;28;25142;-63
2021/07/14 05:49:02;;;;;;;45.72;24.05;;;17.10;99.90;;;;;;5051441;28;25062;-64
2021/07/14 05:51:28;;;;;;;44.83;24.42;;;17.10;99.90;;;;;;5043410;28;25137;-62
2021/07/14 05:53:54;;;;;;;37.15;22.52;;;17.10;99.90;;;;;;5042432;28;25151;-64
2021/07/14 05:56:19;;;;;;;37.90;22.33;;;17.20;99.90;;;;;;5043680;28;25078;-65
2021/07/14 05:58:45;;;;;;;34.30;22.10;;;17.20;99.90;;;;;;5051509;28;25049;-63
2021/07/14 06:01:10;;;;;;;45.60;23.65;;;17.20;99.90;;;;;;5044277;28;25096;-64
2021/07/14 06:03:36;;;;;;;38.17;23.25;;;17.20;99.90;;;;;;5043935;28;25065;-65
2021/07/14 06:06:01;;;;;;;51.42;24.08;;;17.20;99.90;;;;;;5043086;28;25156;-64
2021/07/14 06:08:27;;;;;;;40.63;23.98;;;17.20;99.90;;;;;;5050095;28;25132;-63
2021/07/14 06:10:52;;;;;;;48.85;24.58;;;17.10;99.90;;;;;;5044907;28;25055;-63
2021/07/14 06:13:18;;;;;;;48.45;24.90;;;17.10;99.90;;;;;;5046410;28;25059;-63
2021/07/14 06:15:44;;;;;;;40.53;22.80;;;17.00;99.90;;;;;;5047234;28;25086;-64
2021/07/14 06:18:10;;;;;;;36.58;21.58;;;17.10;99.90;;;;;;5033368;28;25131;-64
2021/07/14 06:20:36;;;;;;;49.38;22.98;;;17.10;99.90;;;;;;5048586;28;25124;-63
2021/07/14 06:23:01;;;;;;;49.15;23.48;;;17.10;99.90;;;;;;5048238;28;25106;-63
2021/07/14 06:25:27;;;;;;;46.63;23.23;;;17.10;99.90;;;;;;5021050;28;25088;-64
2021/07/14 06:27:52;;;;;;;44.03;22.85;;;17.00;99.90;;;;;;5059395;28;25078;-64
2021/07/14 06:30:18;;;;;;;49.42;23.20;;;17.00;99.90;;;;;;5032063;28;25075;-63
2021/07/14 06:32:51;;;;;;;38.95;23.77;;;17.00;99.90;;;;;;5051331;28;25082;-64
2021/07/14 06:35:16;;;;;;;;;;;17.00;99.90;;;;;;5046982;28;25131;-65
2021/07/14 06:37:42;;;;;;;47.03;23.48;;;16.90;99.90;;;;;;5039733;28;24082;-64
2021/07/14 06:40:09;;;;;;;38.72;24.80;;;17.00;99.90;;;;;;5040915;28;25050;-65
2021/07/14 06:42:35;;;;;;;38.92;24.65;;;17.00;99.90;;;;;;5059080;28;25106;-65
2021/07/14 06:45:01;;;;;;;39.38;22.73;;;17.00;99.90;;;;;;5046026;28;25135;-63
2021/07/14 06:47:26;;;;;;;36.10;22.05;;;17.00;99.90;;;;;;5047649;28;25156;-62
2021/07/14 06:49:52;;;;;;;36.30;22.55;;;17.00;99.90;;;;;;5035595;28;25058;-64
2021/07/14 06:52:17;;;;;;;36.30;22.42;;;17.00;99.90;;;;;;5051499;28;25071;-65
2021/07/14 06:54:43;;;;;;;48.22;23.73;;;17.00;99.90;;;;;;5047531;28;25087;-63
2021/07/14 06:57:09;;;;;;;44.08;24.30;;;17.10;99.90;;;;;;5048007;28;25087;-64
2021/07/14 06:59:35;;;;;;;46.45;25.40;;;17.10;99.90;;;;;;5049526;28;25090;-64
2021/07/14 07:02:03;;;;;;;41.88;24.13;;;17.00;99.90;;;;;;5043397;28;25071;-64
2021/07/14 07:04:30;;;;;;;46.38;25.08;;;16.90;99.90;;;;;;5050450;28;25073;-65
2021/07/14 07:06:55;;;;;;;38.17;23.08;;;16.90;99.90;;;;;;5049897;28;25081;-65
2021/07/14 07:09:21;;;;;;;42.50;23.25;;;16.90;99.90;;;;;;5050742;28;25056;-61
2021/07/14 07:11:47;;;;;;;45.83;23.27;;;16.90;99.90;;;;;;5050001;28;25126;-64
2021/07/14 07:14:13;;;;;;;38.45;24.10;;;16.90;99.90;;;;;;5050443;28;25087;-62
2021/07/14 07:16:38;;;;;;;43.97;22.98;;;16.90;99.90;;;;;;5046378;28;25060;-65
2021/07/14 07:19:05;;;;;;;35.80;20.33;;;16.90;99.90;;;;;;5054830;28;25148;-64
2021/07/14 07:21:31;;;;;;;35.20;19.60;;;17.00;99.90;;;;;;5040084;28;25056;-64
2021/07/14 07:23:57;;;;;;;34.53;19.55;;;16.90;99.90;;;;;;5044692;28;25138;-67
2021/07/14 07:26:23;;;;;;;40.70;22.05;;;17.00;99.90;;;;;;5060121;28;25109;-65
2021/07/14 07:28:51;;;;;;;34.40;22.25;;;16.90;99.90;;;;;;5052166;28;25112;-64
2021/07/14 07:31:17;;;;;;;33.05;21.23;;;17.00;99.90;;;;;;5032031;28;25071;-64
2021/07/14 07:33:42;;;;;;;34.45;20.02;;;17.00;99.90;;;;;;5045671;28;25082;-65
2021/07/14 07:36:08;;;;;;;39.13;22.25;;;17.00;99.90;;;;;;5041078;28;25062;-64
2021/07/14 07:38:36;;;;;;;36.67;20.38;;;17.00;99.90;;;;;;5052095;28;25098;-63
2021/07/14 07:41:03;;;;;;;32.35;19.30;;;17.00;99.90;;;;;;5048385;28;25167;-64
2021/07/14 07:43:29;;;;;;;30.42;19.77;;;17.00;99.90;;;;;;5024440;28;25066;-64
2021/07/14 07:45:55;;;;;;;32.03;19.70;;;17.00;99.90;;;;;;5050518;28;25077;-63
2021/07/14 07:48:22;;;;;;;32.75;20.25;;;17.00;99.90;;;;;;5042683;28;25068;-62
2021/07/14 07:50:48;;;;;;;36.70;19.85;;;17.00;99.90;;;;;;5043996;28;25061;-64
2021/07/14 07:53:15;;;;;;;38.15;19.95;;;17.10;99.90;;;;;;5048339;28;25088;-64
2021/07/14 07:55:42;;;;;;;33.92;20.35;;;17.10;99.90;;;;;;5050173;28;24732;-63
2021/07/14 07:58:07;;;;;;;35.17;20.20;;;17.20;99.90;;;;;;5052419;28;25116;-64
2021/07/14 08:00:33;;;;;;;32.15;19.58;;;17.10;99.90;;;;;;5048711;28;25060;-64
2021/07/14 08:02:58;;;;;;;36.17;19.05;;;17.10;99.90;;;;;;5049924;28;25101;-64
2021/07/14 08:05:24;;;;;;;42.85;19.77;;;17.10;99.90;;;;;;5052071;28;25071;-64
2021/07/14 08:07:51;;;;;;;32.55;18.85;;;17.10;99.90;;;;;;5050553;28;25058;-63
2021/07/14 08:10:17;;;;;;;35.53;20.13;;;17.20;99.90;;;;;;5049754;28;25108;-65
2021/07/14 08:12:42;;;;;;;40.85;19.42;;;17.30;99.90;;;;;;5047040;28;25110;-63
2021/07/14 08:15:09;;;;;;;31.50;16.27;;;17.40;99.90;;;;;;5049785;28;25084;-64
2021/07/14 08:17:34;;;;;;;32.05;16.35;;;17.50;99.90;;;;;;5050387;28;25110;-64
2021/07/14 08:20:00;;;;;;;25.23;15.30;;;17.50;99.90;;;;;;5050825;28;25135;-63
2021/07/14 08:22:26;;;;;;;26.45;15.15;;;17.50;99.90;;;;;;5049928;28;25128;-64
2021/07/14 08:24:51;;;;;;;33.45;16.27;;;17.60;99.90;;;;;;5031827;28;25074;-63
2021/07/14 08:27:17;;;;;;;28.48;15.55;;;17.70;99.90;;;;;;5043689;28;25073;-65
2021/07/14 08:29:43;;;;;;;31.80;16.50;;;17.60;99.90;;;;;;5050472;28;25051;-62
2021/07/14 08:32:09;;;;;;;29.50;16.15;;;17.60;99.90;;;;;;5041884;28;25071;-63
2021/07/14 08:34:35;;;;;;;26.23;16.00;;;17.50;99.90;;;;;;5048071;28;25074;-64
2021/07/14 08:37:00;;;;;;;23.05;13.85;;;17.60;99.90;;;;;;5043712;28;25098;-62
2021/07/14 08:39:27;;;;;;;28.95;14.88;;;17.60;99.90;;;;;;5047183;28;25070;-64
2021/07/14 08:41:53;;;;;;;23.77;13.65;;;17.60;99.90;;;;;;5036159;28;25128;-65
2021/07/14 08:44:20;;;;;;;27.23;12.77;;;17.60;99.90;;;;;;5052427;28;25076;-62
2021/07/14 08:46:46;;;;;;;24.15;14.10;;;17.60;99.90;;;;;;5050271;28;25075;-64
2021/07/14 08:49:13;;;;;;;27.60;14.13;;;17.60;99.90;;;;;;5048263;28;25076;-62
2021/07/14 08:51:42;;;;;;;19.73;12.73;;;17.60;99.90;;;;;;5057026;22;25060;-64
2021/07/14 08:54:08;;;;;;;22.95;13.90;;;17.70;99.90;;;;;;5047810;28;25077;-64
2021/07/14 08:56:34;;;;;;;24.25;12.88;;;17.70;99.90;;;;;;5046724;28;25056;-62
2021/07/14 08:59:00;;;;;;;21.75;12.48;;;17.80;99.90;;;;;;5046033;28;25064;-63
2021/07/14 09:01:26;;;;;;;22.38;12.82;;;17.80;99.90;;;;;;5027847;28;25052;-62
2021/07/14 09:03:51;;;;;;;22.50;14.73;;;17.80;99.90;;;;;;5044942;28;25065;-63
2021/07/14 09:06:17;;;;;;;27.58;13.93;;;17.70;99.90;;;;;;5034204;28;25073;-62
2021/07/14 09:08:42;;;;;;;24.48;14.25;;;17.70;99.90;;;;;;5041141;28;25070;-62
2021/07/14 09:11:08;;;;;;;20.00;13.50;;;17.70;99.90;;;;;;5044064;28;25150;-62
2021/07/14 09:13:36;;;;;;;22.05;15.38;;;17.80;99.90;;;;;;5036013;28;25061;-63
2021/07/14 09:16:02;;;;;;;26.60;17.40;;;17.70;99.90;;;;;;5057414;28;25142;-63
2021/07/14 09:18:29;;;;;;;22.92;16.58;;;17.80;99.90;;;;;;5049130;28;25094;-65
2021/07/14 09:20:54;;;;;;;24.48;15.68;;;17.70;99.90;;;;;;5047986;28;25092;-63
2021/07/14 09:23:25;;;;;;;24.02;15.15;;;17.80;99.90;;;;;;5048568;28;25145;-65
2021/07/14 09:25:55;;;;;;;18.27;13.88;;;17.80;99.90;;;;;;5047745;28;25068;-64
2021/07/14 09:28:25;;;;;;;27.42;14.15;;;17.90;99.90;;;;;;5042272;28;25157;-61
2021/07/14 09:31:03;;;;;;;16.45;12.38;;;17.90;99.90;;;;;;5037038;28;25070;-64
2021/07/14 09:33:28;;;;;;;19.90;12.73;;;18.00;99.90;;;;;;5056225;28;25087;-62
2021/07/14 09:35:57;;;;;;;18.63;12.50;;;18.00;99.90;;;;;;5057383;28;25325;-63
2021/07/14 09:38:28;;;;;;;16.17;11.32;;;18.10;99.90;;;;;;5058036;28;25092;-64
2021/07/14 09:40:59;;;;;;;18.58;13.35;;;18.10;99.90;;;;;;5037947;28;25050;-64
2021/07/14 09:43:27;;;;;;;17.38;12.07;;;18.10;99.90;;;;;;5050880;28;25077;-64
2021/07/14 09:45:54;;;;;;;16.80;11.40;;;18.00;99.90;;;;;;5048108;28;25107;-64
2021/07/14 09:48:21;;;;;;;17.05;12.32;;;18.00;99.90;;;;;;5048672;28;25111;-63
2021/07/14 09:50:50;;;;;;;18.10;12.40;;;17.90;99.90;;;;;;5043856;28;25069;-62
2021/07/14 09:53:21;;;;;;;17.02;12.50;;;17.90;99.90;;;;;;5036805;28;25127;-62
2021/07/14 09:55:49;;;;;;;20.05;11.98;;;18.00;99.90;;;;;;5043490;28;25074;-63
2021/07/14 09:58:17;;;;;;;16.27;12.63;;;18.10;99.90;;;;;;5032715;28;25145;-63
2021/07/14 10:00:46;;;;;;;17.98;12.00;;;18.00;99.90;;;;;;5046478;28;25095;-62
2021/07/14 10:03:32;;;;;;;18.92;11.50;;;17.90;99.90;;;;;;5038758;28;25066;-62
2021/07/14 10:06:09;;;;;;;21.58;11.40;;;18.00;99.90;;;;;;5035465;28;25144;-64
2021/07/14 10:08:41;;;;;;;18.13;14.10;;;18.00;99.90;;;;;;5044204;28;25147;-64
2021/07/14 10:11:15;;;;;;;18.88;10.73;;;18.00;99.90;;;;;;5040806;28;25062;-62
2021/07/14 10:14:00;;;;;;;13.73;11.55;;;18.00;99.90;;;;;;5041044;28;25095;-63
2021/07/14 10:16:31;;;;;;;17.67;10.60;;;18.10;99.90;;;;;;5057747;28;25078;-64
2021/07/14 10:18:59;;;;;;;13.75;9.18;;;18.10;99.90;;;;;;5048404;28;25066;-63
2021/07/14 10:21:26;;;;;;;14.35;12.98;;;18.20;99.90;;;;;;5046840;28;25047;-65
2021/07/14 10:23:52;;;;;;;15.70;14.20;;;18.30;99.90;;;;;;5046761;28;25097;-63
2021/07/14 10:26:19;;;;;;;14.15;12.85;;;18.20;99.90;;;;;;5048475;28;25056;-63
2021/07/14 10:28:45;;;;;;;15.73;13.80;;;18.30;99.90;;;;;;5046930;28;25102;-64
2021/07/14 10:31:11;;;;;;;17.48;15.60;;;18.30;99.90;;;;;;5048678;28;25108;-64
2021/07/14 10:33:39;;;;;;;17.00;11.90;;;18.30;99.90;;;;;;5047053;28;25153;-63
2021/07/14 10:36:07;;;;;;;14.27;12.45;;;18.30;99.90;;;;;;5047400;28;25136;-61
2021/07/14 10:38:33;;;;;;;18.02;13.77;;;18.30;99.90;;;;;;5057827;28;25121;-63
2021/07/14 10:41:00;;;;;;;15.85;13.07;;;18.30;99.90;;;;;;5033652;28;25070;-63
2021/07/14 10:43:28;;;;;;;16.95;12.88;;;18.30;99.90;;;;;;5046438;28;25091;-63
2021/07/14 10:45:54;;;;;;;17.70;13.27;;;18.10;99.90;;;;;;5056822;28;25095;-63
2021/07/14 10:48:22;;;;;;;14.75;13.07;;;18.20;99.90;;;;;;5045428;28;25077;-62
2021/07/14 10:50:48;;;;;;;26.42;14.77;;;18.30;99.90;;;;;;5049741;28;25065;-64
2021/07/14 10:53:17;;;;;;;17.00;15.32;;;18.30;99.90;;;;;;5029331;28;25142;-61
2021/07/14 10:55:44;;;;;;;19.10;17.02;;;18.20;99.90;;;;;;5043768;28;25064;-63
2021/07/14 10:58:16;;;;;;;22.48;17.73;;;18.30;99.90;;;;;;5045410;28;25062;-63
2021/07/14 11:00:43;;;;;;;21.13;15.82;;;18.20;99.90;;;;;;5046418;28;25161;-63
2021/07/14 11:03:31;;;;;;;21.88;14.55;;;18.10;99.90;;;;;;5045335;28;25073;-62
2021/07/14 11:05:57;;;;;;;19.13;12.85;;;18.20;99.90;;;;;;5034906;28;25151;-61
2021/07/14 11:08:50;;;;;;;17.23;12.73;;;18.30;99.90;;;;;;5037799;28;25082;-60
2021/07/14 11:11:21;;;;;;;20.75;12.60;;;18.40;99.90;;;;;;5036996;28;25064;-62
2021/07/14 11:14:08;;;;;;;20.90;14.23;;;18.40;99.90;;;;;;5029371;28;25064;-62
2021/07/14 11:16:39;;;;;;;19.05;14.23;;;18.50;99.90;;;;;;5057604;28;25066;-62
2021/07/14 11:19:15;;;;;;;17.90;13.25;;;18.50;99.90;;;;;;5057022;28;25058;-63
2021/07/14 11:21:57;;;;;;;19.88;12.13;;;18.50;99.90;;;;;;5047766;28;25057;-63
2021/07/14 11:24:42;;;;;;;17.17;10.27;;;18.50;99.90;;;;;;5039639;28;25065;-62
2021/07/14 11:27:25;;;;;;;14.63;10.57;;;18.50;99.90;;;;;;5046244;28;25060;-62
2021/07/14 11:30:02;;;;;;;19.25;12.27;;;18.60;99.90;;;;;;5047906;28;25143;-62
2021/07/14 11:32:34;;;;;;;14.77;10.82;;;18.40;99.90;;;;;;5035153;28;25057;-62
2021/07/14 11:35:21;;;;;;;18.17;9.97;;;18.50;99.90;;;;;;5046366;28;25111;-60
2021/07/14 11:37:50;;;;;;;16.85;10.45;;;18.60;99.90;;;;;;5051583;28;25118;-61
2021/07/14 11:40:19;;;;;;;16.30;10.65;;;18.60;99.90;;;;;;5051463;28;25142;-62
2021/07/14 11:42:53;;;;;;;15.30;9.70;;;18.40;99.90;;;;;;5043677;28;25051;-62
2021/07/14 11:45:33;;;;;;;14.05;9.65;;;18.60;99.90;;;;;;5047357;28;25057;-61
2021/07/14 11:48:06;;;;;;;8.52;7.63;;;18.50;99.90;;;;;;5054342;28;25064;-61
2021/07/14 11:53:43;;;;;;;14.18;10.18;;;18.50;99.90;;;;;;5051134;28;25140;-62
2021/07/14 11:56:10;;;;;;;14.63;10.38;;;18.40;99.90;;;;;;4999217;28;25070;-61
2021/07/14 11:58:41;;;;;;;18.83;9.85;;;18.50;99.90;;;;;;5043990;28;25063;-63
2021/07/14 12:01:24;;;;;;;13.13;10.75;;;18.40;99.90;;;;;;5061831;28;25085;-64
2021/07/14 12:03:59;;;;;;;13.52;10.07;;;18.40;99.90;;;;;;5045995;28;25049;-61
2021/07/14 12:06:43;;;;;;;14.05;10.48;;;18.30;99.90;;;;;;5045829;28;25137;-63
2021/07/14 12:09:15;;;;;;;19.63;11.93;;;18.30;99.90;;;;;;5050929;28;25069;-60
2021/07/14 12:11:43;;;;;;;15.57;13.00;;;18.40;99.90;;;;;;5050917;28;25071;-62
2021/07/14 12:14:14;;;;;;;14.85;11.07;;;18.20;99.90;;;;;;5055957;28;25105;-64
2021/07/14 12:16:45;;;;;;;23.33;11.87;;;18.40;99.90;;;;;;5049520;28;25069;-62
2021/07/14 12:19:11;;;;;;;22.25;13.55;;;18.40;99.90;;;;;;5030865;28;25078;-64
2021/07/14 12:21:40;;;;;;;17.33;14.90;;;18.30;99.90;;;;;;5047363;28;24726;-62
2021/07/14 12:24:24;;;;;;;17.25;12.48;;;18.20;99.90;;;;;;5050560;28;25074;-61
2021/07/14 12:27:03;;;;;;;17.08;12.77;;;18.40;99.90;;;;;;5027685;28;25103;-62
2021/07/14 12:29:30;;;;;;;18.85;12.52;;;18.40;99.90;;;;;;5048415;28;25098;-61
2021/07/14 12:31:56;;;;;;;16.02;12.55;;;18.40;99.90;;;;;;5047587;28;25130;-63
2021/07/14 12:34:26;;;;;;;16.10;11.32;;;18.40;99.90;;;;;;5048968;28;25138;-63
2021/07/14 12:36:54;;;;;;;12.93;10.13;;;18.60;99.90;;;;;;5045515;28;25105;-61
2021/07/14 12:39:31;;;;;;;15.13;10.32;;;18.60;99.90;;;;;;5044381;28;25025;-62
2021/07/14 12:41:59;;;;;;;14.98;12.50;;;18.60;99.90;;;;;;5046392;28;25126;-62
2021/07/14 12:44:25;;;;;;;17.38;13.93;;;18.70;99.90;;;;;;5039926;28;25131;-63
2021/07/14 12:46:52;;;;;;;24.35;15.90;;;18.60;99.90;;;;;;5046800;28;25068;-65
2021/07/14 12:49:23;;;;;;;16.20;14.20;;;18.70;99.90;;;;;;5052047;28;25067;-62